Time;durP1;ratioP1;P1;durP2;ratioP2;P2;SDS_P1;SDS_P2;PMS_P1;PMS_P2;Temp;Humidity;BMP_temperature;BMP_pressure;BME280_temperature;BME280_humidity;BME280_pressure;Samples;Min_cycle;Max_cycle;Signal;HPM_P1;HPM_P2
2022/05/28 00:01:00;;;;;;;0.00;0.00;;;11.90;76.60;;;;;;5028751;28;20049;-70
2022/05/28 00:03:28;;;;;;;0.00;0.00;;;11.80;77.00;;;;;;5025045;28;20044;-70
2022/05/28 00:05:54;;;;;;;0.00;0.00;;;11.80;77.20;;;;;;5028174;28;20033;-71
2022/05/28 00:08:20;;;;;;;0.00;0.00;;;11.80;77.50;;;;;;5028912;28;20057;-70
2022/05/28 00:10:47;;;;;;;0.00;0.00;;;11.70;77.90;;;;;;5028959;28;20160;-70
2022/05/28 00:13:12;;;;;;;0.00;0.00;;;11.70;78.30;;;;;;5027688;28;20116;-70
2022/05/28 00:15:41;;;;;;;0.00;0.00;;;11.60;78.50;;;;;;5017337;28;20518;-70
2022/05/28 00:18:07;;;;;;;0.00;0.00;;;11.70;78.30;;;;;;5026521;28;20421;-69
2022/05/28 00:20:33;;;;;;;0.10;0.10;;;11.60;78.70;;;;;;5029198;28;20045;-71
2022/05/28 00:22:58;;;;;;;0.00;0.00;;;11.60;78.80;;;;;;5026952;28;20061;-70
2022/05/28 00:25:24;;;;;;;0.00;0.00;;;11.60;78.90;;;;;;5024571;28;20040;-71
2022/05/28 00:27:50;;;;;;;0.00;0.00;;;11.60;78.60;;;;;;5014551;28;20054;-71
2022/05/28 00:30:19;;;;;;;0.55;0.15;;;11.60;77.80;;;;;;5025015;28;20037;-71
2022/05/28 00:32:45;;;;;;;0.00;0.00;;;11.60;77.20;;;;;;5029139;28;20045;-71
2022/05/28 00:35:15;;;;;;;0.00;0.00;;;11.50;76.90;;;;;;5026892;28;20044;-70
2022/05/28 00:37:42;;;;;;;0.00;0.00;;;11.40;76.90;;;;;;5028584;28;20041;-71
2022/05/28 00:40:12;;;;;;;0.38;0.38;;;11.40;76.60;;;;;;5027821;28;20042;-70
2022/05/28 00:42:38;;;;;;;0.08;0.08;;;11.30;75.80;;;;;;5028565;28;20562;-70
2022/05/28 00:45:05;;;;;;;0.00;0.00;;;11.30;75.40;;;;;;5024030;28;20133;-71
2022/05/28 00:47:31;;;;;;;0.10;0.10;;;11.20;75.00;;;;;;5027967;28;20038;-70
2022/05/28 00:49:57;;;;;;;0.00;0.00;;;11.10;75.00;;;;;;5024885;28;20042;-70
2022/05/28 00:52:25;;;;;;;0.10;0.10;;;11.20;74.90;;;;;;5027876;28;20115;-70
2022/05/28 00:54:52;;;;;;;0.10;0.10;;;11.10;74.90;;;;;;5027078;28;20045;-70
2022/05/28 00:57:20;;;;;;;0.00;0.00;;;11.10;75.10;;;;;;5017630;28;20050;-70
2022/05/28 00:59:46;;;;;;;0.05;0.05;;;11.10;75.30;;;;;;5022845;28;20413;-69
2022/05/28 01:02:39;;;;;;;0.10;0.10;;;11.10;75.30;;;;;;5014664;28;20128;-70
2022/05/28 01:05:29;;;;;;;0.00;0.00;;;11.10;75.80;;;;;;5011657;28;20510;-70
2022/05/28 01:08:36;;;;;;;0.00;0.00;;;11.00;76.60;;;;;;5008741;28;20054;-69
2022/05/28 01:11:27;;;;;;;0.00;0.00;;;10.90;76.60;;;;;;5009016;28;20103;-71
2022/05/28 01:14:07;;;;;;;0.00;0.00;;;10.90;77.00;;;;;;5026727;28;20398;-69
2022/05/28 01:16:43;;;;;;;0.10;0.10;;;10.80;77.10;;;;;;5027631;28;20128;-71
2022/05/28 01:19:23;;;;;;;0.20;0.20;;;10.80;76.90;;;;;;5022420;28;20491;-71
2022/05/28 01:21:57;;;;;;;0.00;0.00;;;10.80;76.80;;;;;;5027998;28;20124;-71
2022/05/28 01:24:38;;;;;;;0.00;0.00;;;10.70;76.50;;;;;;5026384;28;20042;-71
2022/05/28 01:27:09;;;;;;;0.00;0.00;;;10.70;76.30;;;;;;5009001;28;20510;-70
2022/05/28 01:29:51;;;;;;;0.00;0.00;;;10.70;76.30;;;;;;5010910;28;20069;-71
2022/05/28 01:32:19;;;;;;;0.00;0.00;;;10.70;75.70;;;;;;5021432;28;20490;-70
2022/05/28 01:34:45;;;;;;;1.23;1.20;;;10.70;75.30;;;;;;5020316;28;20520;-71
2022/05/28 01:37:12;;;;;;;0.00;0.00;;;10.70;75.40;;;;;;5029689;28;20042;-72
2022/05/28 01:39:41;;;;;;;0.10;0.10;;;10.70;75.00;;;;;;5031419;28;20057;-70
2022/05/28 01:42:09;;;;;;;0.00;0.00;;;10.70;74.60;;;;;;5016318;28;20052;-70
2022/05/28 01:44:38;;;;;;;0.00;0.00;;;10.70;74.40;;;;;;5030937;28;20049;-71
2022/05/28 01:47:03;;;;;;;0.08;0.08;;;10.70;74.20;;;;;;5031497;28;20049;-70
2022/05/28 01:49:30;;;;;;;0.00;0.00;;;10.70;74.40;;;;;;5031891;28;20128;-71
2022/05/28 01:51:59;;;;;;;0.00;0.00;;;10.60;74.80;;;;;;5021043;28;20038;-70
2022/05/28 01:54:32;;;;;;;1.88;1.75;;;10.60;75.40;;;;;;5028347;28;20045;-71
2022/05/28 01:56:58;;;;;;;0.73;0.28;;;10.60;75.30;;;;;;5028614;28;20449;-71
2022/05/28 01:59:31;;;;;;;0.00;0.00;;;10.60;75.60;;;;;;5031339;28;20565;-70
2022/05/28 02:01:59;;;;;;;0.20;0.20;;;10.50;75.60;;;;;;5022818;28;20108;-70
2022/05/28 02:04:25;;;;;;;0.00;0.00;;;10.50;75.80;;;;;;5031589;28;20049;-70
2022/05/28 02:06:51;;;;;;;0.30;0.30;;;10.50;76.00;;;;;;5031090;28;20045;-71
2022/05/28 02:09:24;;;;;;;2.17;0.80;;;10.40;76.20;;;;;;5023810;28;20054;-71
2022/05/28 02:11:55;;;;;;;0.00;0.00;;;10.40;76.20;;;;;;5028269;28;20052;-71
2022/05/28 02:14:49;;;;;;;0.00;0.00;;;10.50;76.20;;;;;;5031295;28;20395;-70
2022/05/28 02:17:52;;;;;;;0.00;0.00;;;10.40;76.40;;;;;;5026623;28;20053;-71
2022/05/28 02:20:47;;;;;;;0.00;0.00;;;10.40;76.70;;;;;;5026256;28;20056;-71
2022/05/28 02:23:25;;;;;;;0.10;0.10;;;10.40;77.00;;;;;;5030141;28;20045;-71
2022/05/28 02:26:03;;;;;;;0.38;0.38;;;10.40;77.20;;;;;;5020878;28;20052;-71
2022/05/28 02:28:31;;;;;;;0.10;0.10;;;10.40;77.40;;;;;;5029646;28;20041;-71
2022/05/28 02:31:04;;;;;;;0.00;0.00;;;10.40;77.70;;;;;;5028938;28;20583;-71
2022/05/28 02:33:32;;;;;;;3.67;1.98;;;10.40;77.80;;;;;;5030739;28;20033;-71
2022/05/28 02:35:58;;;;;;;0.00;0.00;;;10.50;77.70;;;;;;5030511;28;20045;-71
2022/05/28 02:38:23;;;;;;;0.45;0.45;;;10.50;77.40;;;;;;5030947;28;20041;-71
2022/05/28 02:40:49;;;;;;;0.00;0.00;;;10.50;77.40;;;;;;5026879;28;20089;-71
2022/05/28 02:43:15;;;;;;;0.00;0.00;;;10.50;77.20;;;;;;5021381;28;20056;-72
2022/05/28 02:45:41;;;;;;;0.00;0.00;;;10.50;76.90;;;;;;5030958;28;20076;-71
2022/05/28 02:48:07;;;;;;;0.88;0.55;;;10.60;76.90;;;;;;5029167;28;20045;-71
2022/05/28 02:50:33;;;;;;;0.00;0.00;;;10.50;76.70;;;;;;5027865;28;20037;-72
2022/05/28 02:52:59;;;;;;;0.00;0.00;;;10.60;76.80;;;;;;5011617;28;20050;-71
2022/05/28 02:55:25;;;;;;;0.00;0.00;;;10.50;76.90;;;;;;5030371;28;20143;-71
2022/05/28 02:57:50;;;;;;;0.05;0.05;;;10.50;76.60;;;;;;5030331;28;20033;-71
2022/05/28 03:00:16;;;;;;;0.20;0.20;;;10.50;76.80;;;;;;5029353;28;20045;-71
2022/05/28 03:02:43;;;;;;;0.00;0.00;;;10.50;77.00;;;;;;5029715;28;20763;-71
2022/05/28 03:05:11;;;;;;;0.10;0.10;;;10.50;77.10;;;;;;5030515;28;20044;-71
2022/05/28 03:07:36;;;;;;;0.00;0.00;;;10.50;76.80;;;;;;5030615;28;20052;-71
2022/05/28 03:10:02;;;;;;;0.00;0.00;;;10.50;76.80;;;;;;5029683;28;20414;-71
2022/05/28 03:12:28;;;;;;;0.00;0.00;;;10.50;76.80;;;;;;5012618;28;20149;-70
2022/05/28 03:14:53;;;;;;;0.00;0.00;;;10.50;76.70;;;;;;5010602;28;20108;-70
2022/05/28 03:17:19;;;;;;;0.00;0.00;;;10.50;76.70;;;;;;5018606;28;20045;-70
2022/05/28 03:19:44;;;;;;;0.00;0.00;;;10.50;76.80;;;;;;5020327;28;20127;-70
2022/05/28 03:22:10;;;;;;;0.85;0.65;;;10.50;76.90;;;;;;5021614;28;20037;-70
2022/05/28 03:24:35;;;;;;;0.00;0.00;;;10.40;77.40;;;;;;5030538;28;20045;-70
2022/05/28 03:27:01;;;;;;;0.00;0.00;;;10.50;77.50;;;;;;5030071;28;20128;-70
2022/05/28 03:29:27;;;;;;;0.00;0.00;;;10.40;78.00;;;;;;5029559;28;20176;-70
2022/05/28 03:31:53;;;;;;;0.10;0.10;;;10.40;78.20;;;;;;5028327;28;20053;-70
2022/05/28 03:34:18;;;;;;;0.00;0.00;;;10.40;78.00;;;;;;5029532;28;20038;-71
2022/05/28 03:36:44;;;;;;;0.10;0.10;;;10.40;77.80;;;;;;5029744;28;20039;-70
2022/05/28 03:39:10;;;;;;;0.20;0.20;;;10.30;78.00;;;;;;5026598;28;20387;-70
2022/05/28 03:41:35;;;;;;;0.00;0.00;;;10.40;78.00;;;;;;5011226;28;20092;-70
2022/05/28 03:44:01;;;;;;;1.10;0.70;;;10.50;78.10;;;;;;5009777;28;20053;-70
2022/05/28 03:46:30;;;;;;;0.57;0.57;;;10.50;78.10;;;;;;5010467;28;20390;-70
2022/05/28 03:49:00;;;;;;;0.00;0.00;;;10.50;78.20;;;;;;5009854;28;20050;-70
2022/05/28 03:51:26;;;;;;;2.25;1.08;;;10.50;78.00;;;;;;5029748;28;20123;-70
2022/05/28 03:53:52;;;;;;;0.00;0.00;;;10.60;77.80;;;;;;5029619;28;20498;-70
2022/05/28 03:56:19;;;;;;;0.45;0.45;;;10.60;77.40;;;;;;5029299;28;20136;-71
2022/05/28 03:58:44;;;;;;;0.00;0.00;;;10.60;77.10;;;;;;5028648;28;20529;-71
2022/05/28 04:01:10;;;;;;;0.00;0.00;;;10.60;77.00;;;;;;5028049;28;20095;-70
2022/05/28 04:03:36;;;;;;;0.00;0.00;;;10.70;76.90;;;;;;5028499;28;20128;-70
2022/05/28 04:06:03;;;;;;;0.65;0.65;;;10.70;76.70;;;;;;5029127;28;20123;-69
2022/05/28 04:08:29;;;;;;;0.10;0.10;;;10.80;76.80;;;;;;5028611;28;20065;-69
2022/05/28 04:10:54;;;;;;;0.00;0.00;;;10.80;76.70;;;;;;5028954;28;20045;-69
2022/05/28 04:13:20;;;;;;;0.00;0.00;;;10.80;76.80;;;;;;5027778;28;20414;-69
2022/05/28 04:15:48;;;;;;;0.30;0.30;;;10.90;76.70;;;;;;5029359;28;20042;-69
2022/05/28 04:18:14;;;;;;;0.32;0.32;;;10.90;76.40;;;;;;5028441;28;20116;-69
2022/05/28 04:20:39;;;;;;;0.00;0.00;;;10.90;76.00;;;;;;5027471;28;20128;-70
2022/05/28 04:23:05;;;;;;;3.33;2.08;;;10.90;76.10;;;;;;5026884;28;20056;-69
2022/05/28 04:25:31;;;;;;;0.00;0.00;;;10.90;75.80;;;;;;5018543;28;20600;-70
2022/05/28 04:27:56;;;;;;;0.00;0.00;;;10.90;75.60;;;;;;5028426;28;20123;-70
2022/05/28 04:30:22;;;;;;;0.35;0.35;;;10.90;75.80;;;;;;5028322;28;20083;-70
2022/05/28 04:32:47;;;;;;;0.00;0.00;;;10.90;75.50;;;;;;5014621;28;20038;-70
2022/05/28 04:35:13;;;;;;;1.45;1.02;;;10.80;76.00;;;;;;5016827;28;20037;-69
2022/05/28 04:37:39;;;;;;;0.00;0.00;;;10.90;75.70;;;;;;5025314;28;20088;-70
2022/05/28 04:40:05;;;;;;;2.28;1.38;;;10.90;75.70;;;;;;5015533;28;20056;-70
2022/05/28 04:42:31;;;;;;;0.38;0.38;;;10.80;75.60;;;;;;5027296;28;20044;-69
2022/05/28 04:44:57;;;;;;;0.95;0.95;;;10.80;75.30;;;;;;5018067;28;20473;-70
2022/05/28 04:47:23;;;;;;;0.00;0.00;;;10.80;75.00;;;;;;5026681;28;20045;-70
2022/05/28 04:49:48;;;;;;;0.00;0.00;;;10.80;75.10;;;;;;5017176;28;20430;-70
2022/05/28 04:52:14;;;;;;;0.00;0.00;;;10.70;75.60;;;;;;5031104;28;20060;-71
2022/05/28 04:54:39;;;;;;;0.45;0.45;;;10.70;75.60;;;;;;5041505;28;20414;-71
2022/05/28 04:57:05;;;;;;;0.00;0.00;;;10.70;75.60;;;;;;5016680;28;20144;-71
2022/05/28 04:59:31;;;;;;;0.00;0.00;;;10.80;75.50;;;;;;5026134;28;20041;-69
2022/05/28 05:01:56;;;;;;;0.00;0.00;;;10.70;75.90;;;;;;5025419;28;20041;-70
2022/05/28 05:04:22;;;;;;;0.00;0.00;;;10.70;76.00;;;;;;5027639;28;20041;-70
2022/05/28 05:06:48;;;;;;;0.57;0.57;;;10.70;76.00;;;;;;5009531;28;20072;-70
2022/05/28 05:09:13;;;;;;;0.00;0.00;;;10.80;76.00;;;;;;5019433;28;20054;-71
2022/05/28 05:11:39;;;;;;;0.00;0.00;;;10.80;76.00;;;;;;5029674;28;20452;-71
2022/05/28 05:14:05;;;;;;;0.10;0.10;;;10.80;75.60;;;;;;5035027;28;20104;-70
2022/05/28 05:16:30;;;;;;;0.00;0.00;;;10.80;75.70;;;;;;5019854;28;20041;-70
2022/05/28 05:18:56;;;;;;;0.40;0.40;;;10.90;75.80;;;;;;5034760;28;20041;-70
2022/05/28 05:21:21;;;;;;;0.00;0.00;;;11.00;75.60;;;;;;5033029;28;20410;-71
2022/05/28 05:23:47;;;;;;;0.20;0.20;;;11.00;75.70;;;;;;5032883;28;20076;-70
2022/05/28 05:26:15;;;;;;;3.20;1.40;;;11.10;75.40;;;;;;5031270;28;20465;-70
2022/05/28 05:28:42;;;;;;;0.00;0.00;;;11.20;75.20;;;;;;5032675;28;20401;-70
2022/05/28 05:31:07;;;;;;;0.00;0.00;;;11.20;74.20;;;;;;5033698;28;20499;-70
2022/05/28 05:33:33;;;;;;;0.00;0.00;;;11.30;74.60;;;;;;5033455;28;20081;-70
2022/05/28 05:35:58;;;;;;;0.00;0.00;;;11.40;74.20;;;;;;5026294;28;20034;-70
2022/05/28 05:38:24;;;;;;;0.10;0.10;;;11.50;73.50;;;;;;5031511;28;20049;-71
2022/05/28 05:40:51;;;;;;;5.40;1.85;;;11.60;72.70;;;;;;5026647;28;20083;-71
2022/05/28 05:43:18;;;;;;;0.00;0.00;;;11.60;73.10;;;;;;5027700;28;20417;-70
2022/05/28 05:45:54;;;;;;;5.22;1.65;;;11.60;72.60;;;;;;5019686;28;20116;-70
2022/05/28 05:48:20;;;;;;;0.10;0.10;;;11.60;72.30;;;;;;5020309;28;20046;-70
2022/05/28 05:50:46;;;;;;;0.10;0.10;;;11.70;72.20;;;;;;5015867;28;20045;-70
2022/05/28 05:53:12;;;;;;;0.55;0.55;;;11.70;72.60;;;;;;5032429;28;20045;-70
2022/05/28 05:55:37;;;;;;;0.00;0.00;;;11.80;72.50;;;;;;5032985;28;20037;-70
2022/05/28 05:58:04;;;;;;;0.00;0.00;;;11.80;72.60;;;;;;5032642;28;20093;-74
2022/05/28 06:00:29;;;;;;;0.00;0.00;;;11.80;73.00;;;;;;5029335;28;20429;-71
2022/05/28 06:02:55;;;;;;;0.10;0.10;;;11.80;73.10;;;;;;5020916;28;20041;-71
2022/05/28 06:05:21;;;;;;;0.30;0.30;;;11.70;73.00;;;;;;5030150;28;20037;-71
2022/05/28 06:07:46;;;;;;;0.00;0.00;;;11.70;73.40;;;;;;5029738;28;20044;-70
2022/05/28 06:10:12;;;;;;;0.10;0.10;;;11.70;73.70;;;;;;5024539;28;20045;-71
2022/05/28 06:12:38;;;;;;;0.10;0.10;;;11.80;73.20;;;;;;5018406;28;20045;-71
2022/05/28 06:15:04;;;;;;;0.10;0.10;;;11.80;73.10;;;;;;5017991;28;20038;-71
2022/05/28 06:17:30;;;;;;;0.00;0.00;;;11.80;73.00;;;;;;5029472;28;20163;-70
2022/05/28 06:19:56;;;;;;;0.00;0.00;;;11.80;72.70;;;;;;5031872;28;20465;-70
2022/05/28 06:22:21;;;;;;;0.10;0.10;;;11.90;72.80;;;;;;5031596;28;20073;-70
2022/05/28 06:24:47;;;;;;;1.15;0.65;;;11.90;71.40;;;;;;5031441;28;20033;-70
2022/05/28 06:27:13;;;;;;;0.00;0.00;;;11.80;71.90;;;;;;5028800;28;20041;-70
2022/05/28 06:29:38;;;;;;;0.20;0.20;;;11.90;72.20;;;;;;5026387;28;20037;-70
2022/05/28 06:32:04;;;;;;;0.50;0.50;;;11.90;72.20;;;;;;5030486;28;20037;-69
2022/05/28 06:34:30;;;;;;;1.23;0.88;;;11.90;72.40;;;;;;5032280;28;20065;-70
2022/05/28 06:36:55;;;;;;;0.00;0.00;;;11.90;71.80;;;;;;5030622;28;20077;-70
2022/05/28 06:39:22;;;;;;;0.00;0.00;;;11.90;71.80;;;;;;5030985;28;20052;-70
2022/05/28 06:41:47;;;;;;;0.00;0.00;;;11.90;71.80;;;;;;5031427;28;20059;-71
2022/05/28 06:44:13;;;;;;;0.00;0.00;;;12.00;72.10;;;;;;5028173;28;20128;-74
2022/05/28 06:46:38;;;;;;;0.10;0.10;;;12.10;71.30;;;;;;5025549;28;20088;-73
2022/05/28 06:49:04;;;;;;;0.10;0.10;;;12.10;71.20;;;;;;5027745;28;20441;-71
2022/05/28 06:51:33;;;;;;;0.00;0.00;;;12.20;70.80;;;;;;5032008;28;20041;-71
2022/05/28 06:53:59;;;;;;;0.98;0.80;;;12.30;70.60;;;;;;5023354;28;20037;-70
2022/05/28 06:56:24;;;;;;;0.10;0.10;;;12.30;70.50;;;;;;5030810;28;20122;-70
2022/05/28 06:58:50;;;;;;;0.20;0.20;;;12.40;68.70;;;;;;5013185;28;20037;-70
2022/05/28 07:01:16;;;;;;;0.00;0.00;;;12.50;68.70;;;;;;5019278;28;20080;-70
2022/05/28 07:03:43;;;;;;;0.00;0.00;;;12.60;68.60;;;;;;5023425;28;20517;-70
2022/05/28 07:06:10;;;;;;;0.00;0.00;;;12.70;69.50;;;;;;5029529;28;20670;-71
2022/05/28 07:08:36;;;;;;;0.00;0.00;;;12.80;69.10;;;;;;5030881;28;20161;-70
2022/05/28 07:11:05;;;;;;;0.10;0.10;;;12.80;68.80;;;;;;5015992;28;20156;-70
2022/05/28 07:13:30;;;;;;;0.10;0.10;;;12.80;67.80;;;;;;5029965;28;20049;-69
2022/05/28 07:15:56;;;;;;;0.00;0.00;;;12.70;68.70;;;;;;5027306;28;20045;-70
2022/05/28 07:18:22;;;;;;;0.40;0.40;;;12.70;68.30;;;;;;5030634;28;20037;-70
2022/05/28 07:20:47;;;;;;;0.00;0.00;;;12.80;68.00;;;;;;5028101;28;20131;-69
2022/05/28 07:23:16;;;;;;;0.00;0.00;;;12.70;68.00;;;;;;5030448;28;20049;-70
2022/05/28 07:25:43;;;;;;;0.00;0.00;;;12.70;68.40;;;;;;5020645;28;20056;-69
2022/05/28 07:28:24;;;;;;;0.10;0.10;;;12.90;68.40;;;;;;5030176;28;20064;-70
2022/05/28 07:30:51;;;;;;;0.00;0.00;;;13.00;67.90;;;;;;5025561;28;20041;-70
2022/05/28 07:33:17;;;;;;;0.00;0.00;;;12.80;68.30;;;;;;5030262;28;20045;-70
2022/05/28 07:35:43;;;;;;;0.63;0.63;;;12.80;69.10;;;;;;5029488;28;20059;-70
2022/05/28 07:38:09;;;;;;;0.00;0.00;;;12.90;67.30;;;;;;5030026;28;20041;-70
2022/05/28 07:40:34;;;;;;;0.00;0.00;;;13.10;66.40;;;;;;5030396;28;20045;-69
2022/05/28 07:43:00;;;;;;;0.00;0.00;;;13.00;66.60;;;;;;5021975;28;20041;-69
2022/05/28 07:45:26;;;;;;;0.00;0.00;;;13.00;68.40;;;;;;5016465;28;20041;-70
2022/05/28 07:47:51;;;;;;;0.00;0.00;;;13.00;68.00;;;;;;5020414;28;20411;-69
2022/05/28 07:50:17;;;;;;;0.00;0.00;;;12.90;68.00;;;;;;5025347;28;20050;-70
2022/05/28 07:52:44;;;;;;;0.10;0.10;;;12.80;67.50;;;;;;5029968;28;20052;-70
2022/05/28 07:55:12;;;;;;;0.00;0.00;;;12.80;67.90;;;;;;5016811;28;20131;-69
2022/05/28 07:57:37;;;;;;;0.55;0.55;;;12.80;67.50;;;;;;5029922;28;20050;-70
2022/05/28 08:00:04;;;;;;;0.00;0.00;;;12.80;68.70;;;;;;5029468;28;20041;-70
2022/05/28 08:02:29;;;;;;;0.63;0.63;;;12.90;67.20;;;;;;5029729;28;20030;-69
2022/05/28 08:04:55;;;;;;;0.35;0.35;;;12.90;66.60;;;;;;5029689;28;20095;-69
2022/05/28 08:07:21;;;;;;;0.10;0.10;;;12.90;67.10;;;;;;5029104;28;20053;-71
2022/05/28 08:09:46;;;;;;;0.03;0.03;;;12.90;68.40;;;;;;5029111;28;20136;-71
2022/05/28 08:12:12;;;;;;;0.00;0.00;;;13.10;68.10;;;;;;5028944;28;20038;-70
2022/05/28 08:14:38;;;;;;;0.30;0.30;;;13.10;66.20;;;;;;5029549;28;20041;-71
2022/05/28 08:17:04;;;;;;;0.00;0.00;;;13.10;65.60;;;;;;5017557;28;20169;-72
2022/05/28 08:19:31;;;;;;;0.10;0.10;;;13.10;66.70;;;;;;5012286;28;20041;-71
2022/05/28 08:24:41;;;;;;;0.00;0.00;;;13.10;67.20;;;;;;5027579;28;20045;-71
2022/05/28 08:27:06;;;;;;;0.00;0.00;;;13.10;65.80;;;;;;5029221;28;20428;-72
2022/05/28 08:29:32;;;;;;;0.00;0.00;;;13.00;65.60;;;;;;5029456;28;20092;-72
2022/05/28 08:31:57;;;;;;;0.00;0.00;;;13.00;65.00;;;;;;5014093;28;20038;-71
2022/05/28 08:34:23;;;;;;;0.00;0.00;;;13.10;65.50;;;;;;5029316;28;20129;-71
2022/05/28 08:36:49;;;;;;;0.10;0.10;;;13.30;66.40;;;;;;5026852;28;20069;-72
2022/05/28 08:39:15;;;;;;;0.43;0.43;;;13.40;65.40;;;;;;5017548;28;20052;-73
2022/05/28 08:41:55;;;;;;;0.22;0.22;;;13.40;66.00;;;;;;5028995;28;20049;-72
2022/05/28 08:44:31;;;;;;;0.30;0.30;;;13.10;65.20;;;;;;5028654;28;20049;-71
2022/05/28 08:47:12;;;;;;;0.10;0.10;;;13.30;65.60;;;;;;5024306;28;20041;-70
2022/05/28 08:49:38;;;;;;;0.00;0.00;;;13.30;66.10;;;;;;5028767;28;20042;-71
2022/05/28 08:52:09;;;;;;;0.17;0.17;;;13.40;66.60;;;;;;5027217;28;20140;-69
2022/05/28 08:54:43;;;;;;;0.00;0.00;;;13.40;68.50;;;;;;5029144;28;20502;-70
2022/05/28 08:57:18;;;;;;;0.85;0.85;;;13.40;66.60;;;;;;5011022;28;20065;-72
2022/05/28 09:00:00;;;;;;;0.93;0.65;;;13.30;65.20;;;;;;5029024;28;20057;-70
2022/05/28 09:02:37;;;;;;;;;;;13.50;64.10;;;;;;5014420;28;20905;-70
2022/05/28 09:05:34;;;;;;;0.00;0.00;;;13.60;64.40;;;;;;5025387;28;19928;-71
2022/05/28 09:08:03;;;;;;;0.00;0.00;;;13.50;64.00;;;;;;5016485;28;20131;-71
2022/05/28 09:10:46;;;;;;;0.20;0.20;;;13.30;62.60;;;;;;5023013;28;20046;-71
2022/05/28 09:13:24;;;;;;;0.00;0.00;;;13.60;63.30;;;;;;5025506;28;20383;-72
2022/05/28 09:15:51;;;;;;;0.08;0.08;;;13.70;64.00;;;;;;5026261;28;20081;-71
2022/05/28 09:18:19;;;;;;;0.40;0.40;;;13.40;64.40;;;;;;5025620;28;20521;-72
2022/05/28 09:20:45;;;;;;;0.00;0.00;;;13.40;65.00;;;;;;5014426;28;20499;-70
2022/05/28 09:23:11;;;;;;;0.00;0.00;;;13.60;64.60;;;;;;5020360;28;20204;-71
2022/05/28 09:25:43;;;;;;;0.10;0.10;;;13.60;64.90;;;;;;5028056;28;20041;-72
2022/05/28 09:28:39;;;;;;;0.00;0.00;;;13.60;64.00;;;;;;5018011;28;20139;-71
2022/05/28 09:31:18;;;;;;;0.10;0.10;;;13.60;64.50;;;;;;5026188;28;20124;-70
2022/05/28 09:34:11;;;;;;;0.17;0.17;;;13.70;64.90;;;;;;5028191;28;20704;-70
2022/05/28 09:36:57;;;;;;;0.00;0.00;;;13.60;65.10;;;;;;5022430;28;20045;-69
2022/05/28 09:39:45;;;;;;;0.00;0.00;;;13.60;64.60;;;;;;5014436;28;20159;-71
2022/05/28 09:42:44;;;;;;;0.00;0.00;;;13.60;64.00;;;;;;5028497;28;20518;-72
2022/05/28 09:45:22;;;;;;;16.15;1.65;;;13.80;63.60;;;;;;5014681;28;20048;-72
2022/05/28 09:47:53;;;;;;;0.17;0.17;;;13.90;62.90;;;;;;5015461;28;20072;-71
2022/05/28 09:50:21;;;;;;;0.00;0.00;;;13.90;63.90;;;;;;5018011;28;20076;-71
2022/05/28 09:56:06;;;;;;;0.00;0.00;;;14.20;61.70;;;;;;5029750;28;20053;-70
2022/05/28 09:58:37;;;;;;;0.45;0.45;;;14.30;62.00;;;;;;5012316;28;20092;-71
2022/05/28 10:01:10;;;;;;;0.00;0.00;;;14.20;62.60;;;;;;5019132;28;20048;-71
2022/05/28 10:06:25;;;;;;;0.35;0.35;;;13.70;64.80;;;;;;5032010;28;20053;-71
2022/05/28 10:08:51;;;;;;;0.00;0.00;;;13.70;64.70;;;;;;5032632;28;20123;-71
2022/05/28 10:11:22;;;;;;;0.50;0.50;;;13.60;63.90;;;;;;5032962;28;20498;-72
2022/05/28 10:13:50;;;;;;;0.00;0.00;;;13.60;65.00;;;;;;5032353;28;20049;-72
2022/05/28 10:16:23;;;;;;;0.00;0.00;;;13.50;63.80;;;;;;5030926;28;20045;-71
2022/05/28 10:18:55;;;;;;;0.00;0.00;;;13.50;64.40;;;;;;5031992;28;20138;-71
2022/05/28 10:21:33;;;;;;;0.00;0.00;;;13.50;65.40;;;;;;5032792;28;20103;-70
2022/05/28 10:24:04;;;;;;;0.20;0.20;;;13.50;64.60;;;;;;5026159;28;20042;-71
2022/05/28 10:26:36;;;;;;;0.70;0.70;;;13.50;63.30;;;;;;5027524;28;20465;-71
2022/05/28 10:29:16;;;;;;;0.00;0.00;;;13.60;62.20;;;;;;5031865;28;20041;-70
2022/05/28 10:31:46;;;;;;;0.55;0.55;;;13.80;61.60;;;;;;5031707;28;20592;-71
2022/05/28 10:34:34;;;;;;;0.00;0.00;;;13.90;61.90;;;;;;5031815;28;20091;-71
2022/05/28 10:37:07;;;;;;;0.00;0.00;;;13.80;62.50;;;;;;5011464;28;20060;-71
2022/05/28 10:39:32;;;;;;;0.00;0.00;;;13.80;63.40;;;;;;5017185;28;20391;-70
2022/05/28 10:41:58;;;;;;;0.00;0.00;;;14.00;63.40;;;;;;4993420;28;20049;-71
2022/05/28 10:44:24;;;;;;;0.10;0.10;;;13.80;61.40;;;;;;5018448;28;20687;-69
2022/05/28 10:47:02;;;;;;;0.00;0.00;;;14.00;62.40;;;;;;5017137;28;20038;-75
2022/05/28 10:50:09;;;;;;;0.30;0.30;;;13.90;61.60;;;;;;5012341;28;20046;-71
2022/05/28 10:52:44;;;;;;;0.00;0.00;;;13.70;61.40;;;;;;5022806;28;20143;-72
2022/05/28 10:55:12;;;;;;;4.25;0.90;;;13.70;64.00;;;;;;5017838;28;20045;-73
2022/05/28 10:58:18;;;;;;;0.10;0.10;;;13.90;63.80;;;;;;5019273;28;20045;-68
2022/05/28 11:00:59;;;;;;;0.00;0.00;;;14.10;62.50;;;;;;5015206;28;20049;-68
2022/05/28 11:03:49;;;;;;;2.72;0.38;;;14.10;60.00;;;;;;5016991;28;20497;-69
2022/05/28 11:06:18;;;;;;;0.10;0.10;;;14.30;60.90;;;;;;5008675;28;20038;-69
2022/05/28 11:08:52;;;;;;;0.22;0.22;;;14.40;60.70;;;;;;5029447;28;20411;-69
2022/05/28 11:11:42;;;;;;;3.28;1.55;;;14.30;59.10;;;;;;5017625;28;20049;-66
2022/05/28 11:14:15;;;;;;;0.00;0.00;;;14.20;60.60;;;;;;5025098;28;20507;-69
2022/05/28 11:17:04;;;;;;;0.00;0.00;;;14.10;62.30;;;;;;5026688;28;20807;-69
2022/05/28 11:19:43;;;;;;;1.00;0.57;;;14.00;60.70;;;;;;4996025;28;20137;-70
2022/05/28 11:22:52;;;;;;;0.00;0.00;;;14.00;61.20;;;;;;5017883;28;20051;-70
2022/05/28 11:25:57;;;;;;;0.00;0.00;;;14.00;61.10;;;;;;5040995;28;20057;-70
2022/05/28 11:28:48;;;;;;;2.83;0.70;;;14.00;61.40;;;;;;5019784;28;20388;-69
2022/05/28 11:31:41;;;;;;;0.10;0.10;;;13.90;62.00;;;;;;5017293;28;20077;-70
2022/05/28 11:34:23;;;;;;;0.00;0.00;;;14.10;62.30;;;;;;5029948;28;20077;-70
2022/05/28 11:37:28;;;;;;;0.00;0.00;;;14.10;63.00;;;;;;5014593;28;20376;-69
2022/05/28 11:40:12;;;;;;;0.00;0.00;;;13.90;64.10;;;;;;5030650;28;20049;-70
2022/05/28 11:43:03;;;;;;;0.03;0.03;;;13.70;65.30;;;;;;5029724;28;20510;-70
2022/05/28 11:45:42;;;;;;;0.20;0.20;;;13.50;67.20;;;;;;5028105;28;20053;-70
2022/05/28 11:48:15;;;;;;;0.10;0.10;;;13.40;67.10;;;;;;5028100;28;20120;-70
2022/05/28 11:53:44;;;;;;;0.10;0.10;;;13.10;67.90;;;;;;5029858;28;20049;-69
2022/05/28 11:56:15;;;;;;;0.00;0.00;;;13.00;66.60;;;;;;5028115;28;20049;-73
2022/05/28 11:58:58;;;;;;;0.00;0.00;;;13.10;66.30;;;;;;5022321;28;20120;-74
2022/05/28 12:01:27;;;;;;;0.00;0.00;;;13.10;66.70;;;;;;5030219;28;20084;-72
2022/05/28 12:03:53;;;;;;;0.10;0.10;;;13.20;66.40;;;;;;5051262;28;20042;-73
2022/05/28 12:06:18;;;;;;;0.10;0.10;;;13.20;67.30;;;;;;5029894;28;20053;-73
2022/05/28 12:08:57;;;;;;;0.90;0.90;;;13.10;64.80;;;;;;5032131;28;20124;-74
2022/05/28 12:11:44;;;;;;;0.03;0.03;;;13.20;65.90;;;;;;5021510;28;20088;-74
2022/05/28 12:14:24;;;;;;;0.32;0.15;;;13.30;67.80;;;;;;5037078;28;20795;-73
2022/05/28 12:17:12;;;;;;;0.00;0.00;;;13.20;69.20;;;;;;5031111;28;20046;-74
2022/05/28 12:19:47;;;;;;;55.70;1.50;;;13.10;71.00;;;;;;5029484;28;20494;-74
2022/05/28 12:22:35;;;;;;;0.05;0.05;;;13.20;70.10;;;;;;5030358;28;20489;-74
2022/05/28 12:25:14;;;;;;;0.00;0.00;;;13.30;68.40;;;;;;5029960;28;20057;-73
2022/05/28 12:27:54;;;;;;;0.00;0.00;;;13.60;67.40;;;;;;5011702;28;20107;-76
2022/05/28 12:30:43;;;;;;;0.45;0.45;;;14.00;62.90;;;;;;5029783;28;20099;-74
2022/05/28 12:33:27;;;;;;;0.00;0.00;;;14.20;60.40;;;;;;5029760;28;20490;-74
2022/05/28 12:36:20;;;;;;;1.15;1.00;;;14.50;57.70;;;;;;5030755;28;20510;-74
2022/05/28 12:39:12;;;;;;;0.10;0.10;;;14.50;56.90;;;;;;5030901;28;20042;-74
2022/05/28 12:41:38;;;;;;;0.05;0.05;;;14.50;56.60;;;;;;5029291;28;20115;-72
2022/05/28 12:44:17;;;;;;;0.32;0.32;;;14.60;55.80;;;;;;5029218;28;20472;-73
2022/05/28 12:46:49;;;;;;;0.55;0.55;;;14.80;55.90;;;;;;5029627;28;20041;-74
2022/05/28 12:49:27;;;;;;;0.00;0.00;;;14.90;56.30;;;;;;5018245;28;20449;-72
2022/05/28 12:52:00;;;;;;;0.00;0.00;;;14.60;54.70;;;;;;5022933;28;20747;-73
2022/05/28 12:54:32;;;;;;;0.00;0.00;;;14.70;56.60;;;;;;5029535;28;20045;-73
2022/05/28 12:57:26;;;;;;;0.00;0.00;;;14.70;58.10;;;;;;5027796;28;20038;-72
2022/05/28 13:00:03;;;;;;;0.85;0.85;;;14.90;56.50;;;;;;5022004;28;20037;-73
2022/05/28 13:02:48;;;;;;;0.47;0.47;;;15.00;54.80;;;;;;5019218;28;20049;-70
2022/05/28 13:05:29;;;;;;;2.30;0.95;;;15.10;55.80;;;;;;5028389;28;20033;-70
2022/05/28 13:08:02;;;;;;;0.00;0.00;;;15.10;56.80;;;;;;5028300;28;20515;-70
2022/05/28 13:10:29;;;;;;;0.00;0.00;;;15.00;56.20;;;;;;5020345;28;20300;-71
2022/05/28 13:13:02;;;;;;;0.35;0.35;;;15.00;55.40;;;;;;5030211;28;20144;-71
2022/05/28 13:15:46;;;;;;;0.85;0.85;;;15.00;54.50;;;;;;5026938;28;20037;-71
2022/05/28 13:18:54;;;;;;;0.00;0.00;;;15.10;54.90;;;;;;5030274;28;20045;-70
2022/05/28 13:21:46;;;;;;;0.20;0.20;;;15.30;56.90;;;;;;5012762;28;20053;-71